sensor_id;sensor_type;location;lat;lon;timestamp;temperature;humidity
67161;DHT22;54088;52.238;21.104;2022-07-29T00:01:37;17.20;71.20
67161;DHT22;54088;52.238;21.104;2022-07-29T00:04:02;17.20;71.30
67161;DHT22;54088;52.238;21.104;2022-07-29T00:06:28;17.30;71.30
67161;DHT22;54088;52.238;21.104;2022-07-29T00:08:53;17.30;71.20
67161;DHT22;54088;52.238;21.104;2022-07-29T00:11:19;17.30;71.20
67161;DHT22;54088;52.238;21.104;2022-07-29T00:13:45;17.30;71.10
67161;DHT22;54088;52.238;21.104;2022-07-29T00:16:10;17.30;71.10
67161;DHT22;54088;52.238;21.104;2022-07-29T00:18:36;17.20;71.30
67161;DHT22;54088;52.238;21.104;2022-07-29T00:21:02;17.20;71.60
67161;DHT22;54088;52.238;21.104;2022-07-29T00:23:27;17.20;71.80
67161;DHT22;54088;52.238;21.104;2022-07-29T00:25:53;17.10;72.10
67161;DHT22;54088;52.238;21.104;2022-07-29T00:28:19;17.10;72.10
67161;DHT22;54088;52.238;21.104;2022-07-29T00:30:44;17.00;72.30
67161;DHT22;54088;52.238;21.104;2022-07-29T00:33:10;17.00;72.50
67161;DHT22;54088;52.238;21.104;2022-07-29T00:35:36;17.00;72.70
67161;DHT22;54088;52.238;21.104;2022-07-29T00:38:15;17.00;72.90
67161;DHT22;54088;52.238;21.104;2022-07-29T00:40:41;16.90;73.10
67161;DHT22;54088;52.238;21.104;2022-07-29T00:43:07;16.90;73.30
67161;DHT22;54088;52.238;21.104;2022-07-29T00:45:33;16.80;73.40
67161;DHT22;54088;52.238;21.104;2022-07-29T00:47:59;16.90;73.50
67161;DHT22;54088;52.238;21.104;2022-07-29T00:50:25;16.80;73.70
67161;DHT22;54088;52.238;21.104;2022-07-29T00:52:52;16.80;73.70
67161;DHT22;54088;52.238;21.104;2022-07-29T00:55:18;16.80;74.00
67161;DHT22;54088;52.238;21.104;2022-07-29T00:57:44;16.70;74.30
67161;DHT22;54088;52.238;21.104;2022-07-29T01:00:14;16.70;74.40
67161;DHT22;54088;52.238;21.104;2022-07-29T01:02:40;16.60;74.60
67161;DHT22;54088;52.238;21.104;2022-07-29T01:05:06;16.60;74.60
67161;DHT22;54088;52.238;21.104;2022-07-29T01:07:34;16.60;74.50
67161;DHT22;54088;52.238;21.104;2022-07-29T01:10:05;16.60;74.50
67161;DHT22;54088;52.238;21.104;2022-07-29T01:12:32;16.70;74.50
67161;DHT22;54088;52.238;21.104;2022-07-29T01:15:01;16.80;74.50
67161;DHT22;54088;52.238;21.104;2022-07-29T01:20:08;16.70;74.30
67161;DHT22;54088;52.238;21.104;2022-07-29T01:30:26;16.60;74.90
67161;DHT22;54088;52.238;21.104;2022-07-29T01:32:58;16.50;75.10
67161;DHT22;54088;52.238;21.104;2022-07-29T01:35:30;16.50;75.10
67161;DHT22;54088;52.238;21.104;2022-07-29T01:38:08;16.40;75.40
67161;DHT22;54088;52.238;21.104;2022-07-29T01:43:48;16.40;75.70
67161;DHT22;54088;52.238;21.104;2022-07-29T01:46:19;16.40;75.70
67161;DHT22;54088;52.238;21.104;2022-07-29T01:48:48;16.40;75.90
67161;DHT22;54088;52.238;21.104;2022-07-29T01:51:20;16.30;76.00
67161;DHT22;54088;52.238;21.104;2022-07-29T01:56:13;16.10;76.80
67161;DHT22;54088;52.238;21.104;2022-07-29T01:58:41;16.10;76.90
67161;DHT22;54088;52.238;21.104;2022-07-29T02:01:09;16.10;77.10
67161;DHT22;54088;52.238;21.104;2022-07-29T02:03:37;16.00;77.20
67161;DHT22;54088;52.238;21.104;2022-07-29T02:06:04;16.00;77.40
67161;DHT22;54088;52.238;21.104;2022-07-29T02:08:32;16.00;77.10
67161;DHT22;54088;52.238;21.104;2022-07-29T02:10:59;16.10;76.90
67161;DHT22;54088;52.238;21.104;2022-07-29T02:13:26;16.10;76.90
67161;DHT22;54088;52.238;21.104;2022-07-29T02:15:53;16.10;77.00
67161;DHT22;54088;52.238;21.104;2022-07-29T02:18:22;16.00;77.30
67161;DHT22;54088;52.238;21.104;2022-07-29T02:20:52;16.00;77.50
67161;DHT22;54088;52.238;21.104;2022-07-29T02:23:21;15.90;77.50
67161;DHT22;54088;52.238;21.104;2022-07-29T02:25:49;16.00;77.70
67161;DHT22;54088;52.238;21.104;2022-07-29T02:28:17;15.90;77.90
67161;DHT22;54088;52.238;21.104;2022-07-29T02:30:43;15.90;78.00
67161;DHT22;54088;52.238;21.104;2022-07-29T02:33:13;15.80;78.10
67161;DHT22;54088;52.238;21.104;2022-07-29T02:35:41;15.80;78.40
67161;DHT22;54088;52.238;21.104;2022-07-29T02:38:10;15.70;78.80
67161;DHT22;54088;52.238;21.104;2022-07-29T02:40:56;15.70;78.60
67161;DHT22;54088;52.238;21.104;2022-07-29T02:43:24;15.70;78.90
67161;DHT22;54088;52.238;21.104;2022-07-29T02:45:53;15.70;78.90
67161;DHT22;54088;52.238;21.104;2022-07-29T02:48:25;15.60;79.50
67161;DHT22;54088;52.238;21.104;2022-07-29T02:51:01;15.70;79.50
67161;DHT22;54088;52.238;21.104;2022-07-29T02:53:30;15.60;80.00
67161;DHT22;54088;52.238;21.104;2022-07-29T02:56:14;15.60;80.00
67161;DHT22;54088;52.238;21.104;2022-07-29T02:58:47;15.60;79.80
67161;DHT22;54088;52.238;21.104;2022-07-29T03:01:23;15.70;79.90
67161;DHT22;54088;52.238;21.104;2022-07-29T03:03:50;15.70;79.80
67161;DHT22;54088;52.238;21.104;2022-07-29T03:06:18;15.60;80.30
67161;DHT22;54088;52.238;21.104;2022-07-29T03:08:45;15.70;80.40
67161;DHT22;54088;52.238;21.104;2022-07-29T03:11:12;15.70;80.30
67161;DHT22;54088;52.238;21.104;2022-07-29T03:13:38;15.80;80.30
67161;DHT22;54088;52.238;21.104;2022-07-29T03:16:05;15.80;80.30
67161;DHT22;54088;52.238;21.104;2022-07-29T03:18:31;15.70;80.40
67161;DHT22;54088;52.238;21.104;2022-07-29T03:20:57;15.90;80.00
67161;DHT22;54088;52.238;21.104;2022-07-29T03:23:24;15.80;79.90
67161;DHT22;54088;52.238;21.104;2022-07-29T03:25:51;15.90;79.90
67161;DHT22;54088;52.238;21.104;2022-07-29T03:28:17;15.80;80.00
67161;DHT22;54088;52.238;21.104;2022-07-29T03:30:43;15.80;80.20
67161;DHT22;54088;52.238;21.104;2022-07-29T03:33:09;15.80;80.00
67161;DHT22;54088;52.238;21.104;2022-07-29T03:35:34;15.80;80.10
67161;DHT22;54088;52.238;21.104;2022-07-29T03:38:00;15.80;80.30
67161;DHT22;54088;52.238;21.104;2022-07-29T03:40:38;15.80;80.40
67161;DHT22;54088;52.238;21.104;2022-07-29T03:43:06;15.90;80.10
67161;DHT22;54088;52.238;21.104;2022-07-29T03:45:34;16.20;79.20
67161;DHT22;54088;52.238;21.104;2022-07-29T03:48:05;16.30;78.30
67161;DHT22;54088;52.238;21.104;2022-07-29T03:50:33;16.30;78.40
67161;DHT22;54088;52.238;21.104;2022-07-29T03:53:00;16.10;78.70
67161;DHT22;54088;52.238;21.104;2022-07-29T03:55:28;16.40;78.60
67161;DHT22;54088;52.238;21.104;2022-07-29T03:57:55;17.30;76.40
67161;DHT22;54088;52.238;21.104;2022-07-29T04:00:23;18.40;72.30
67161;DHT22;54088;52.238;21.104;2022-07-29T04:02:49;18.70;69.90
67161;DHT22;54088;52.238;21.104;2022-07-29T04:05:18;18.70;70.40
67161;DHT22;54088;52.238;21.104;2022-07-29T04:07:45;19.20;69.00
67161;DHT22;54088;52.238;21.104;2022-07-29T04:10:12;20.70;66.20
67161;DHT22;54088;52.238;21.104;2022-07-29T04:12:37;22.50;60.60
67161;DHT22;54088;52.238;21.104;2022-07-29T04:15:04;23.70;56.70
67161;DHT22;54088;52.238;21.104;2022-07-29T04:17:30;24.40;54.30
67161;DHT22;54088;52.238;21.104;2022-07-29T04:19:55;24.20;53.90
67161;DHT22;54088;52.238;21.104;2022-07-29T04:22:21;23.80;54.30
67161;DHT22;54088;52.238;21.104;2022-07-29T04:24:47;24.30;53.90
67161;DHT22;54088;52.238;21.104;2022-07-29T04:27:12;25.10;52.20
67161;DHT22;54088;52.238;21.104;2022-07-29T04:29:38;25.40;51.30
67161;DHT22;54088;52.238;21.104;2022-07-29T04:32:04;26.00;50.20
67161;DHT22;54088;52.238;21.104;2022-07-29T04:34:30;25.40;50.20
67161;DHT22;54088;52.238;21.104;2022-07-29T04:36:55;25.50;50.80
67161;DHT22;54088;52.238;21.104;2022-07-29T04:39:21;26.30;49.90
67161;DHT22;54088;52.238;21.104;2022-07-29T04:41:47;26.90;48.10
67161;DHT22;54088;52.238;21.104;2022-07-29T04:44:13;27.40;47.50
67161;DHT22;54088;52.238;21.104;2022-07-29T04:46:39;28.00;46.30
67161;DHT22;54088;52.238;21.104;2022-07-29T04:49:04;27.60;46.10
67161;DHT22;54088;52.238;21.104;2022-07-29T04:51:30;27.20;47.40
67161;DHT22;54088;52.238;21.104;2022-07-29T04:53:56;27.70;47.20
67161;DHT22;54088;52.238;21.104;2022-07-29T04:56:22;28.50;45.30
67161;DHT22;54088;52.238;21.104;2022-07-29T04:58:47;28.30;45.10
67161;DHT22;54088;52.238;21.104;2022-07-29T05:01:13;28.40;45.20
67161;DHT22;54088;52.238;21.104;2022-07-29T05:03:40;28.40;45.10
67161;DHT22;54088;52.238;21.104;2022-07-29T05:06:05;27.50;46.10
67161;DHT22;54088;52.238;21.104;2022-07-29T05:08:31;26.60;48.30
67161;DHT22;54088;52.238;21.104;2022-07-29T05:10:57;25.80;49.80
67161;DHT22;54088;52.238;21.104;2022-07-29T05:13:22;25.40;50.90
67161;DHT22;54088;52.238;21.104;2022-07-29T05:15:48;25.00;52.20
67161;DHT22;54088;52.238;21.104;2022-07-29T05:18:13;25.30;51.70
67161;DHT22;54088;52.238;21.104;2022-07-29T05:20:39;25.10;51.60
67161;DHT22;54088;52.238;21.104;2022-07-29T05:23:05;24.90;52.40
67161;DHT22;54088;52.238;21.104;2022-07-29T05:25:31;24.80;52.40
67161;DHT22;54088;52.238;21.104;2022-07-29T05:27:56;24.80;52.80
67161;DHT22;54088;52.238;21.104;2022-07-29T05:30:23;24.40;53.10
67161;DHT22;54088;52.238;21.104;2022-07-29T05:32:49;24.30;53.80
67161;DHT22;54088;52.238;21.104;2022-07-29T05:35:15;24.40;54.40
67161;DHT22;54088;52.238;21.104;2022-07-29T05:37:41;24.20;54.20
67161;DHT22;54088;52.238;21.104;2022-07-29T05:40:07;24.20;54.00
67161;DHT22;54088;52.238;21.104;2022-07-29T05:42:33;24.40;54.80
67161;DHT22;54088;52.238;21.104;2022-07-29T05:45:00;24.60;53.80
67161;DHT22;54088;52.238;21.104;2022-07-29T05:47:26;24.90;53.20
67161;DHT22;54088;52.238;21.104;2022-07-29T05:49:52;25.00;52.80
67161;DHT22;54088;52.238;21.104;2022-07-29T05:52:18;24.90;52.60
67161;DHT22;54088;52.238;21.104;2022-07-29T05:54:43;25.00;53.00
67161;DHT22;54088;52.238;21.104;2022-07-29T05:57:16;25.40;52.40
67161;DHT22;54088;52.238;21.104;2022-07-29T05:59:42;25.30;51.60
67161;DHT22;54088;52.238;21.104;2022-07-29T06:02:07;25.50;51.90
67161;DHT22;54088;52.238;21.104;2022-07-29T06:04:33;25.70;51.30
67161;DHT22;54088;52.238;21.104;2022-07-29T06:06:59;25.50;51.70
67161;DHT22;54088;52.238;21.104;2022-07-29T06:09:25;25.80;51.00
67161;DHT22;54088;52.238;21.104;2022-07-29T06:11:51;25.70;51.50
67161;DHT22;54088;52.238;21.104;2022-07-29T06:14:17;25.60;51.20
67161;DHT22;54088;52.238;21.104;2022-07-29T06:16:43;25.60;51.60
67161;DHT22;54088;52.238;21.104;2022-07-29T06:19:09;25.70;51.60
67161;DHT22;54088;52.238;21.104;2022-07-29T06:21:34;25.70;50.80
67161;DHT22;54088;52.238;21.104;2022-07-29T06:24:00;25.30;51.60
67161;DHT22;54088;52.238;21.104;2022-07-29T06:26:25;25.30;52.10
67161;DHT22;54088;52.238;21.104;2022-07-29T06:28:51;25.40;51.70
67161;DHT22;54088;52.238;21.104;2022-07-29T06:31:17;25.30;52.60
67161;DHT22;54088;52.238;21.104;2022-07-29T06:33:42;26.00;51.40
67161;DHT22;54088;52.238;21.104;2022-07-29T06:36:08;26.30;50.80
67161;DHT22;54088;52.238;21.104;2022-07-29T06:38:34;26.70;49.50
67161;DHT22;54088;52.238;21.104;2022-07-29T06:41:00;26.30;50.20
67161;DHT22;54088;52.238;21.104;2022-07-29T06:43:37;26.60;49.80
67161;DHT22;54088;52.238;21.104;2022-07-29T06:46:06;26.60;49.70
67161;DHT22;54088;52.238;21.104;2022-07-29T06:48:32;26.60;49.90
67161;DHT22;54088;52.238;21.104;2022-07-29T06:50:59;26.90;49.20
67161;DHT22;54088;52.238;21.104;2022-07-29T06:53:24;27.00;49.40
67161;DHT22;54088;52.238;21.104;2022-07-29T06:55:50;27.30;49.00
67161;DHT22;54088;52.238;21.104;2022-07-29T06:58:16;26.90;48.20
67161;DHT22;54088;52.238;21.104;2022-07-29T07:00:44;26.50;49.30
67161;DHT22;54088;52.238;21.104;2022-07-29T07:03:10;26.10;50.90
67161;DHT22;54088;52.238;21.104;2022-07-29T07:05:36;26.00;50.10
67161;DHT22;54088;52.238;21.104;2022-07-29T07:08:02;25.80;50.90
67161;DHT22;54088;52.238;21.104;2022-07-29T07:10:28;26.30;50.10
67161;DHT22;54088;52.238;21.104;2022-07-29T07:12:54;26.20;49.20
67161;DHT22;54088;52.238;21.104;2022-07-29T07:15:20;26.30;49.70
67161;DHT22;54088;52.238;21.104;2022-07-29T07:17:49;26.70;49.40
67161;DHT22;54088;52.238;21.104;2022-07-29T07:20:15;26.60;49.00
67161;DHT22;54088;52.238;21.104;2022-07-29T07:22:41;26.40;49.50
67161;DHT22;54088;52.238;21.104;2022-07-29T07:25:07;26.50;50.10
67161;DHT22;54088;52.238;21.104;2022-07-29T07:27:34;26.70;49.00
67161;DHT22;54088;52.238;21.104;2022-07-29T07:30:00;26.60;48.80
67161;DHT22;54088;52.238;21.104;2022-07-29T07:32:26;26.60;48.80
67161;DHT22;54088;52.238;21.104;2022-07-29T07:34:51;26.40;48.40
67161;DHT22;54088;52.238;21.104;2022-07-29T07:37:17;26.20;49.50
67161;DHT22;54088;52.238;21.104;2022-07-29T07:39:45;26.40;48.60
67161;DHT22;54088;52.238;21.104;2022-07-29T07:42:11;26.40;48.70
67161;DHT22;54088;52.238;21.104;2022-07-29T07:44:39;26.20;49.40
67161;DHT22;54088;52.238;21.104;2022-07-29T07:47:05;26.10;49.20
67161;DHT22;54088;52.238;21.104;2022-07-29T07:49:31;26.00;49.40
67161;DHT22;54088;52.238;21.104;2022-07-29T07:51:56;26.20;49.90
67161;DHT22;54088;52.238;21.104;2022-07-29T07:54:22;26.10;49.60
67161;DHT22;54088;52.238;21.104;2022-07-29T07:56:48;26.00;49.80
67161;DHT22;54088;52.238;21.104;2022-07-29T07:59:17;26.00;48.80
67161;DHT22;54088;52.238;21.104;2022-07-29T08:01:43;26.30;49.30
67161;DHT22;54088;52.238;21.104;2022-07-29T08:04:09;26.30;49.10
67161;DHT22;54088;52.238;21.104;2022-07-29T08:06:34;26.40;49.40
67161;DHT22;54088;52.238;21.104;2022-07-29T08:09:02;26.40;49.10
67161;DHT22;54088;52.238;21.104;2022-07-29T08:11:28;26.60;48.20
67161;DHT22;54088;52.238;21.104;2022-07-29T08:13:54;26.30;48.20
67161;DHT22;54088;52.238;21.104;2022-07-29T08:16:20;26.30;48.80
67161;DHT22;54088;52.238;21.104;2022-07-29T08:18:45;26.50;48.00
67161;DHT22;54088;52.238;21.104;2022-07-29T08:21:12;26.40;48.00
67161;DHT22;54088;52.238;21.104;2022-07-29T08:23:38;26.40;49.40
67161;DHT22;54088;52.238;21.104;2022-07-29T08:26:08;26.70;48.50
67161;DHT22;54088;52.238;21.104;2022-07-29T08:28:37;26.40;48.70
67161;DHT22;54088;52.238;21.104;2022-07-29T08:31:03;26.10;48.70
67161;DHT22;54088;52.238;21.104;2022-07-29T08:33:29;26.30;49.00
67161;DHT22;54088;52.238;21.104;2022-07-29T08:35:55;26.30;47.70
67161;DHT22;54088;52.238;21.104;2022-07-29T08:38:20;26.10;48.40
67161;DHT22;54088;52.238;21.104;2022-07-29T08:40:46;26.10;48.20
67161;DHT22;54088;52.238;21.104;2022-07-29T08:43:12;26.20;48.60
67161;DHT22;54088;52.238;21.104;2022-07-29T08:45:44;26.60;49.30
67161;DHT22;54088;52.238;21.104;2022-07-29T08:48:12;27.40;47.40
67161;DHT22;54088;52.238;21.104;2022-07-29T08:50:39;28.60;46.20
67161;DHT22;54088;52.238;21.104;2022-07-29T08:53:09;29.10;44.50
67161;DHT22;54088;52.238;21.104;2022-07-29T08:55:38;28.70;44.00
67161;DHT22;54088;52.238;21.104;2022-07-29T08:58:04;27.80;45.60
67161;DHT22;54088;52.238;21.104;2022-07-29T09:00:31;27.30;45.50
67161;DHT22;54088;52.238;21.104;2022-07-29T09:02:57;27.70;45.70
67161;DHT22;54088;52.238;21.104;2022-07-29T09:05:26;28.00;44.90
67161;DHT22;54088;52.238;21.104;2022-07-29T09:07:52;27.40;45.20
67161;DHT22;54088;52.238;21.104;2022-07-29T09:10:18;27.00;46.00
67161;DHT22;54088;52.238;21.104;2022-07-29T09:12:44;26.90;46.50
67161;DHT22;54088;52.238;21.104;2022-07-29T09:15:09;26.80;46.90
67161;DHT22;54088;52.238;21.104;2022-07-29T09:17:42;26.70;46.60
67161;DHT22;54088;52.238;21.104;2022-07-29T09:20:10;26.70;47.10
67161;DHT22;54088;52.238;21.104;2022-07-29T09:22:36;26.60;45.80
67161;DHT22;54088;52.238;21.104;2022-07-29T09:25:02;26.40;46.00
67161;DHT22;54088;52.238;21.104;2022-07-29T09:27:27;26.20;46.60
67161;DHT22;54088;52.238;21.104;2022-07-29T09:32:26;26.30;47.30
67161;DHT22;54088;52.238;21.104;2022-07-29T09:35:19;26.40;46.00
67161;DHT22;54088;52.238;21.104;2022-07-29T09:37:45;26.40;46.10
67161;DHT22;54088;52.238;21.104;2022-07-29T09:40:16;26.10;46.50
67161;DHT22;54088;52.238;21.104;2022-07-29T09:42:42;26.30;45.80
67161;DHT22;54088;52.238;21.104;2022-07-29T09:45:08;26.20;45.50
67161;DHT22;54088;52.238;21.104;2022-07-29T09:47:45;26.10;46.20
67161;DHT22;54088;52.238;21.104;2022-07-29T09:50:12;26.10;46.10
67161;DHT22;54088;52.238;21.104;2022-07-29T09:52:50;26.00;46.00
67161;DHT22;54088;52.238;21.104;2022-07-29T09:55:17;26.20;46.00
67161;DHT22;54088;52.238;21.104;2022-07-29T09:57:44;26.20;45.80
67161;DHT22;54088;52.238;21.104;2022-07-29T10:00:15;26.10;45.20
67161;DHT22;54088;52.238;21.104;2022-07-29T10:02:43;25.90;45.30
67161;DHT22;54088;52.238;21.104;2022-07-29T10:05:21;25.70;46.40
67161;DHT22;54088;52.238;21.104;2022-07-29T10:07:52;25.60;46.90
67161;DHT22;54088;52.238;21.104;2022-07-29T10:12:49;25.70;46.70
67161;DHT22;54088;52.238;21.104;2022-07-29T10:15:15;25.70;46.60
67161;DHT22;54088;52.238;21.104;2022-07-29T10:17:41;25.80;46.80
67161;DHT22;54088;52.238;21.104;2022-07-29T10:20:08;25.90;46.20
67161;DHT22;54088;52.238;21.104;2022-07-29T10:22:33;25.90;46.40
67161;DHT22;54088;52.238;21.104;2022-07-29T10:24:59;26.00;45.50
67161;DHT22;54088;52.238;21.104;2022-07-29T10:27:25;26.00;46.30
67161;DHT22;54088;52.238;21.104;2022-07-29T10:29:51;26.00;45.80
67161;DHT22;54088;52.238;21.104;2022-07-29T10:43:33;26.20;44.30
67161;DHT22;54088;52.238;21.104;2022-07-29T10:46:02;26.40;44.10
67161;DHT22;54088;52.238;21.104;2022-07-29T10:48:28;26.50;44.10
67161;DHT22;54088;52.238;21.104;2022-07-29T10:51:04;26.60;44.30
67161;DHT22;54088;52.238;21.104;2022-07-29T10:53:49;26.70;43.80
67161;DHT22;54088;52.238;21.104;2022-07-29T10:56:30;27.00;43.90
67161;DHT22;54088;52.238;21.104;2022-07-29T11:01:46;26.90;42.00
67161;DHT22;54088;52.238;21.104;2022-07-29T11:04:13;26.70;42.80
67161;DHT22;54088;52.238;21.104;2022-07-29T11:09:29;26.70;42.90
67161;DHT22;54088;52.238;21.104;2022-07-29T11:11:56;26.40;43.00
67161;DHT22;54088;52.238;21.104;2022-07-29T11:17:17;26.40;44.10
67161;DHT22;54088;52.238;21.104;2022-07-29T11:19:43;26.20;44.10
67161;DHT22;54088;52.238;21.104;2022-07-29T11:22:10;26.30;44.40
67161;DHT22;54088;52.238;21.104;2022-07-29T11:24:37;26.30;44.60
67161;DHT22;54088;52.238;21.104;2022-07-29T11:27:13;26.30;44.90
67161;DHT22;54088;52.238;21.104;2022-07-29T11:29:56;26.40;44.20
67161;DHT22;54088;52.238;21.104;2022-07-29T11:32:24;26.40;44.30
67161;DHT22;54088;52.238;21.104;2022-07-29T11:35:19;26.70;43.20
67161;DHT22;54088;52.238;21.104;2022-07-29T11:43:52;26.30;44.50
67161;DHT22;54088;52.238;21.104;2022-07-29T11:46:48;26.40;44.60
67161;DHT22;54088;52.238;21.104;2022-07-29T11:49:25;26.60;44.00
67161;DHT22;54088;52.238;21.104;2022-07-29T11:51:55;26.70;43.00
67161;DHT22;54088;52.238;21.104;2022-07-29T11:54:26;26.50;44.10
67161;DHT22;54088;52.238;21.104;2022-07-29T11:56:52;26.30;44.70
67161;DHT22;54088;52.238;21.104;2022-07-29T11:59:19;26.20;44.20
67161;DHT22;54088;52.238;21.104;2022-07-29T12:01:59;26.20;44.70
67161;DHT22;54088;52.238;21.104;2022-07-29T12:04:25;26.30;44.80
67161;DHT22;54088;52.238;21.104;2022-07-29T12:06:54;26.40;44.50
67161;DHT22;54088;52.238;21.104;2022-07-29T12:09:21;26.50;44.30
67161;DHT22;54088;52.238;21.104;2022-07-29T12:11:47;26.50;44.60
67161;DHT22;54088;52.238;21.104;2022-07-29T12:14:29;26.60;44.90
67161;DHT22;54088;52.238;21.104;2022-07-29T12:16:55;26.60;43.70
67161;DHT22;54088;52.238;21.104;2022-07-29T12:19:21;26.60;43.20
67161;DHT22;54088;52.238;21.104;2022-07-29T12:21:49;26.50;43.70
67161;DHT22;54088;52.238;21.104;2022-07-29T12:24:15;26.40;44.20
67161;DHT22;54088;52.238;21.104;2022-07-29T12:26:57;26.30;43.70
67161;DHT22;54088;52.238;21.104;2022-07-29T12:29:23;26.20;44.40
67161;DHT22;54088;52.238;21.104;2022-07-29T12:31:53;26.40;44.90
67161;DHT22;54088;52.238;21.104;2022-07-29T12:34:23;26.80;43.90
67161;DHT22;54088;52.238;21.104;2022-07-29T12:36:51;26.90;44.10
67161;DHT22;54088;52.238;21.104;2022-07-29T12:39:17;26.90;42.30
67161;DHT22;54088;52.238;21.104;2022-07-29T12:41:44;26.70;42.90
67161;DHT22;54088;52.238;21.104;2022-07-29T12:44:10;26.50;42.90
67161;DHT22;54088;52.238;21.104;2022-07-29T12:46:36;26.40;43.30
67161;DHT22;54088;52.238;21.104;2022-07-29T12:49:03;26.20;43.60
67161;DHT22;54088;52.238;21.104;2022-07-29T12:51:35;26.20;44.20
67161;DHT22;54088;52.238;21.104;2022-07-29T12:54:19;26.20;44.20
67161;DHT22;54088;52.238;21.104;2022-07-29T12:56:45;26.10;43.90
67161;DHT22;54088;52.238;21.104;2022-07-29T12:59:19;26.10;44.30
67161;DHT22;54088;52.238;21.104;2022-07-29T13:01:49;26.20;44.40
67161;DHT22;54088;52.238;21.104;2022-07-29T13:04:32;26.40;44.30
67161;DHT22;54088;52.238;21.104;2022-07-29T13:07:00;26.60;43.30
67161;DHT22;54088;52.238;21.104;2022-07-29T13:09:40;26.60;43.90
67161;DHT22;54088;52.238;21.104;2022-07-29T13:12:11;26.50;43.40
67161;DHT22;54088;52.238;21.104;2022-07-29T13:14:45;26.50;43.40
67161;DHT22;54088;52.238;21.104;2022-07-29T13:17:21;26.40;43.00
67161;DHT22;54088;52.238;21.104;2022-07-29T13:20:07;26.50;43.70
67161;DHT22;54088;52.238;21.104;2022-07-29T13:22:38;26.50;43.60
67161;DHT22;54088;52.238;21.104;2022-07-29T13:25:05;26.50;43.10
67161;DHT22;54088;52.238;21.104;2022-07-29T13:27:37;26.30;43.40
67161;DHT22;54088;52.238;21.104;2022-07-29T13:30:08;26.40;43.40
67161;DHT22;54088;52.238;21.104;2022-07-29T13:32:34;26.40;43.20
67161;DHT22;54088;52.238;21.104;2022-07-29T13:35:06;26.40;43.50
67161;DHT22;54088;52.238;21.104;2022-07-29T13:37:34;26.40;43.10
67161;DHT22;54088;52.238;21.104;2022-07-29T13:40:04;26.50;42.60
67161;DHT22;54088;52.238;21.104;2022-07-29T13:42:31;26.50;42.80
67161;DHT22;54088;52.238;21.104;2022-07-29T13:44:57;26.50;42.40
67161;DHT22;54088;52.238;21.104;2022-07-29T13:47:23;26.30;42.90
67161;DHT22;54088;52.238;21.104;2022-07-29T13:49:49;26.40;42.80
67161;DHT22;54088;52.238;21.104;2022-07-29T13:52:15;26.40;43.40
67161;DHT22;54088;52.238;21.104;2022-07-29T13:54:41;26.50;42.60
67161;DHT22;54088;52.238;21.104;2022-07-29T13:57:07;26.50;42.50
67161;DHT22;54088;52.238;21.104;2022-07-29T13:59:33;26.40;42.00
67161;DHT22;54088;52.238;21.104;2022-07-29T14:01:59;26.20;42.40
67161;DHT22;54088;52.238;21.104;2022-07-29T14:04:25;26.20;41.90
67161;DHT22;54088;52.238;21.104;2022-07-29T14:06:53;26.20;42.10
67161;DHT22;54088;52.238;21.104;2022-07-29T14:09:19;26.30;42.40
67161;DHT22;54088;52.238;21.104;2022-07-29T14:11:45;26.40;42.40
67161;DHT22;54088;52.238;21.104;2022-07-29T14:14:12;26.40;41.90
67161;DHT22;54088;52.238;21.104;2022-07-29T14:16:37;26.30;41.80
67161;DHT22;54088;52.238;21.104;2022-07-29T14:19:03;26.20;41.70
67161;DHT22;54088;52.238;21.104;2022-07-29T14:21:29;26.00;42.00
67161;DHT22;54088;52.238;21.104;2022-07-29T14:23:55;25.80;42.30
67161;DHT22;54088;52.238;21.104;2022-07-29T14:26:22;25.80;42.60
67161;DHT22;54088;52.238;21.104;2022-07-29T14:28:48;25.70;42.60
67161;DHT22;54088;52.238;21.104;2022-07-29T14:31:14;25.80;42.80
67161;DHT22;54088;52.238;21.104;2022-07-29T14:33:40;25.90;42.40
67161;DHT22;54088;52.238;21.104;2022-07-29T14:36:06;26.00;42.50
67161;DHT22;54088;52.238;21.104;2022-07-29T14:38:31;26.00;42.20
67161;DHT22;54088;52.238;21.104;2022-07-29T14:40:57;25.90;42.40
67161;DHT22;54088;52.238;21.104;2022-07-29T14:43:23;25.80;42.10
67161;DHT22;54088;52.238;21.104;2022-07-29T14:45:48;25.70;42.30
67161;DHT22;54088;52.238;21.104;2022-07-29T14:48:14;25.60;43.10
67161;DHT22;54088;52.238;21.104;2022-07-29T14:50:39;25.70;43.00
67161;DHT22;54088;52.238;21.104;2022-07-29T14:53:05;25.60;42.90
67161;DHT22;54088;52.238;21.104;2022-07-29T14:55:31;25.60;43.00
67161;DHT22;54088;52.238;21.104;2022-07-29T14:57:57;25.50;43.10
67161;DHT22;54088;52.238;21.104;2022-07-29T15:00:25;25.60;43.40
67161;DHT22;54088;52.238;21.104;2022-07-29T15:02:51;25.70;42.90
67161;DHT22;54088;52.238;21.104;2022-07-29T15:05:16;25.70;42.50
67161;DHT22;54088;52.238;21.104;2022-07-29T15:07:42;25.60;42.40
67161;DHT22;54088;52.238;21.104;2022-07-29T15:10:08;25.50;42.50
67161;DHT22;54088;52.238;21.104;2022-07-29T15:12:34;25.50;42.70
67161;DHT22;54088;52.238;21.104;2022-07-29T15:15:00;25.50;42.50
67161;DHT22;54088;52.238;21.104;2022-07-29T15:17:25;25.50;43.10
67161;DHT22;54088;52.238;21.104;2022-07-29T15:19:51;25.60;43.00
67161;DHT22;54088;52.238;21.104;2022-07-29T15:22:17;25.60;43.00
67161;DHT22;54088;52.238;21.104;2022-07-29T15:24:42;25.60;42.70
67161;DHT22;54088;52.238;21.104;2022-07-29T15:27:08;25.60;42.90
67161;DHT22;54088;52.238;21.104;2022-07-29T15:29:40;25.60;42.80
67161;DHT22;54088;52.238;21.104;2022-07-29T15:32:06;25.60;43.00
67161;DHT22;54088;52.238;21.104;2022-07-29T15:34:31;25.60;42.50
67161;DHT22;54088;52.238;21.104;2022-07-29T15:36:57;25.60;42.70
67161;DHT22;54088;52.238;21.104;2022-07-29T15:39:22;25.60;42.30
67161;DHT22;54088;52.238;21.104;2022-07-29T15:41:49;25.50;42.60
67161;DHT22;54088;52.238;21.104;2022-07-29T15:44:14;25.40;43.10
67161;DHT22;54088;52.238;21.104;2022-07-29T15:46:40;25.40;43.00
67161;DHT22;54088;52.238;21.104;2022-07-29T15:49:24;25.40;42.50
67161;DHT22;54088;52.238;21.104;2022-07-29T15:51:57;25.30;42.70
67161;DHT22;54088;52.238;21.104;2022-07-29T15:54:23;25.30;43.00
67161;DHT22;54088;52.238;21.104;2022-07-29T15:56:49;25.40;42.50
67161;DHT22;54088;52.238;21.104;2022-07-29T15:59:14;25.30;42.30
67161;DHT22;54088;52.238;21.104;2022-07-29T16:01:40;25.30;42.70
67161;DHT22;54088;52.238;21.104;2022-07-29T16:04:06;25.30;42.50
67161;DHT22;54088;52.238;21.104;2022-07-29T16:06:31;25.30;42.60